createdAt,value
2018-12-03T00:02:37.936Z,4.90
2018-12-03T00:07:38.202Z,4.10
2018-12-03T00:12:38.533Z,2.70
2018-12-03T00:17:38.768Z,2.70
2018-12-03T00:22:39.552Z,2.50
2018-12-03T00:27:47.327Z,2.80
2018-12-03T00:32:46.796Z,2.90
2018-12-03T00:37:47.386Z,2.90
2018-12-03T00:42:47.658Z,3.90
2018-12-03T00:47:48.461Z,4.10
2018-12-03T00:52:45.854Z,4.30
2018-12-03T00:57:47.112Z,4.30
2018-12-03T01:02:45.103Z,4.20
2018-12-03T01:07:45.818Z,4.30
2018-12-03T01:12:46.185Z,4.20
2018-12-03T01:17:47.212Z,3.60
2018-12-03T01:22:44.850Z,3.10
2018-12-03T01:27:48.115Z,3.60
2018-12-03T01:32:45.595Z,4.20
2018-12-03T01:37:43.355Z,4.40
2018-12-03T01:42:44.554Z,3.40
2018-12-03T01:47:43.299Z,3.00
2018-12-03T01:52:43.988Z,3.60
2018-12-03T01:57:46.715Z,3.80
2018-12-03T02:02:47.523Z,3.10
2018-12-03T02:07:56.449Z,3.50
2018-12-03T02:12:53.349Z,2.70
2018-12-03T02:17:54.651Z,2.40
2018-12-03T02:22:54.779Z,2.60
2018-12-03T02:27:55.364Z,2.20
2018-12-03T02:32:55.692Z,3.00
2018-12-03T02:38:03.117Z,2.60
2018-12-03T02:43:02.803Z,3.20
2018-12-03T02:48:03.703Z,3.70
2018-12-03T02:53:05.124Z,3.20
2018-12-03T02:58:05.964Z,4.10
2018-12-03T03:03:06.011Z,3.80
2018-12-03T03:08:08.673Z,4.00
2018-12-03T03:13:09.293Z,3.70
2018-12-03T03:18:09.613Z,3.80
2018-12-03T03:23:10.420Z,3.40
2018-12-03T03:28:08.070Z,2.90
2018-12-03T03:33:09.095Z,3.10
2018-12-03T03:38:09.134Z,3.20
2018-12-03T03:43:07.842Z,3.00
2018-12-03T08:38:52.828Z,3.30
2018-12-03T08:43:58.937Z,3.00
2018-12-03T08:49:07.946Z,3.70
2018-12-03T08:54:07.620Z,3.40
2018-12-03T08:59:11.261Z,3.80
2018-12-03T09:04:11.767Z,3.40
2018-12-03T09:09:20.146Z,3.00
2018-12-03T09:14:20.049Z,4.40
2018-12-03T09:19:20.602Z,3.50
2018-12-03T09:24:23.762Z,3.80
2018-12-03T09:29:27.315Z,3.90
2018-12-03T09:34:27.408Z,4.10
2018-12-03T09:39:28.741Z,3.90
2018-12-03T09:44:29.086Z,3.60
2018-12-03T09:49:29.818Z,3.40
2018-12-03T09:54:28.349Z,3.50
2018-12-03T09:59:32.036Z,3.40
2018-12-03T10:04:46.509Z,3.80
2018-12-03T10:09:51.167Z,3.20
2018-12-03T10:14:47.908Z,3.60
2018-12-03T10:19:46.070Z,3.70
2018-12-03T10:24:43.703Z,5.30
2018-12-03T10:29:41.689Z,3.80
2018-12-03T10:34:47.800Z,3.50
2018-12-03T10:39:53.518Z,3.90
2018-12-03T10:45:01.077Z,3.70
2018-12-03T10:50:05.814Z,3.40
2018-12-03T10:55:13.662Z,3.30
2018-12-03T11:00:18.784Z,4.00
2018-12-03T11:05:31.879Z,4.00
2018-12-03T11:10:27.583Z,5.50
2018-12-03T11:15:34.207Z,4.40
2018-12-03T11:20:39.932Z,3.50
2018-12-03T11:25:36.901Z,3.70
2018-12-03T11:30:35.411Z,4.40
2018-12-03T11:35:33.539Z,5.50
2018-12-03T11:40:32.143Z,3.20
2018-12-03T11:45:30.822Z,3.70
2018-12-03T11:50:25.993Z,3.90
2018-12-03T11:55:24.959Z,3.10
2018-12-03T12:00:31.472Z,3.90
2018-12-03T12:05:30.663Z,3.70
2018-12-03T12:10:25.023Z,4.60
2018-12-03T12:15:23.644Z,3.80
2018-12-03T12:20:22.060Z,3.90
2018-12-03T12:25:20.518Z,3.30
2018-12-03T12:30:18.765Z,3.30
2018-12-03T12:35:16.334Z,2.90
2018-12-03T12:40:14.088Z,3.70
2018-12-03T12:45:12.161Z,3.40
2018-12-03T12:49:02.701Z,3.20
2018-12-03T12:53:59.929Z,3.40
2018-12-03T12:58:58.652Z,3.70
2018-12-03T13:03:56.326Z,3.70
2018-12-03T13:08:55.057Z,3.80
2018-12-03T13:13:53.381Z,3.40
2018-12-03T13:18:49.463Z,3.60
2018-12-03T13:23:47.238Z,4.30
2018-12-03T13:28:45.520Z,3.30
2018-12-03T13:33:44.380Z,3.70
2018-12-03T13:38:47.808Z,8.20
2018-12-03T13:43:46.937Z,3.40
2018-12-03T13:48:44.898Z,3.80
2018-12-03T13:53:44.876Z,3.20
2018-12-03T13:58:43.491Z,3.60
2018-12-03T14:03:42.631Z,4.60
2018-12-03T14:08:40.454Z,3.30
2018-12-03T14:13:39.589Z,2.60
2018-12-03T14:18:37.821Z,2.10
2018-12-03T14:23:37.392Z,2.70
2018-12-03T14:28:36.904Z,1.80
2018-12-03T14:33:40.281Z,2.40
2018-12-03T14:38:48.415Z,2.40
2018-12-03T14:43:51.276Z,2.10
2018-12-03T14:48:53.689Z,2.80
2018-12-03T14:53:57.249Z,3.20
2018-12-03T14:58:59.608Z,2.80
2018-12-03T15:04:02.277Z,3.30
2018-12-03T15:09:11.329Z,3.80
2018-12-03T15:14:16.621Z,3.10
2018-12-03T15:19:17.748Z,3.60
2018-12-03T15:24:25.190Z,3.40
2018-12-03T15:29:33.896Z,4.40
2018-12-03T15:34:42.762Z,3.70
2018-12-03T15:39:43.484Z,4.10
2018-12-03T15:44:46.316Z,3.60
2018-12-03T15:49:49.327Z,4.20
2018-12-03T15:54:49.025Z,3.70
2018-12-03T15:59:49.429Z,4.00
2018-12-03T16:04:54.348Z,3.80
2018-12-03T16:09:53.758Z,3.40
2018-12-03T16:14:57.064Z,3.50
2018-12-03T16:20:00.790Z,3.90
2018-12-03T16:25:02.551Z,3.60
2018-12-03T16:36:12.987Z,3.20
2018-12-03T16:41:15.586Z,3.00
2018-12-03T16:46:24.201Z,2.90
2018-12-03T16:51:31.579Z,2.70
2018-12-03T16:56:39.626Z,2.70
2018-12-03T17:01:41.628Z,2.80
2018-12-03T17:06:45.046Z,3.10
2018-12-03T17:11:47.744Z,3.20
2018-12-03T17:16:50.977Z,2.50
2018-12-03T17:21:54.248Z,2.80
2018-12-03T17:26:57.175Z,2.60
2018-12-03T17:32:01.299Z,3.00
2018-12-03T17:37:04.611Z,2.70
2018-12-03T17:42:07.936Z,2.60
2018-12-03T17:47:10.350Z,3.30
2018-12-03T17:52:13.681Z,3.20
2018-12-03T17:57:19.478Z,3.20
2018-12-03T18:02:21.613Z,2.90
2018-12-03T18:07:26.132Z,3.30
2018-12-03T18:12:31.728Z,3.40
2018-12-03T18:17:34.647Z,3.00
2018-12-03T18:22:45.414Z,3.60
2018-12-03T18:27:53.801Z,3.20
2018-12-03T18:33:04.062Z,3.40
2018-12-03T18:38:10.033Z,3.60
2018-12-03T18:43:10.534Z,3.30
2018-12-03T18:48:20.988Z,3.80
2018-12-03T18:53:25.609Z,3.50
2018-12-03T18:58:29.508Z,3.60
2018-12-03T19:03:41.037Z,4.20
2018-12-03T19:08:55.305Z,4.40
2018-12-03T19:14:00.387Z,4.40
2018-12-03T19:19:06.180Z,3.40
2018-12-03T19:24:19.564Z,3.50
2018-12-03T19:29:24.459Z,2.80
2018-12-03T19:34:32.068Z,3.10
2018-12-03T19:39:44.144Z,6.20
2018-12-03T19:44:48.521Z,3.00
2018-12-03T19:49:56.372Z,2.90
2018-12-03T19:55:02.631Z,3.50
2018-12-03T20:00:07.922Z,3.50
2018-12-03T20:05:13.716Z,3.70
2018-12-03T20:10:18.519Z,3.70
2018-12-03T20:15:32.145Z,4.10
2018-12-03T20:20:40.070Z,4.20
2018-12-03T20:25:45.536Z,4.00
2018-12-03T20:30:59.598Z,4.80
2018-12-03T20:36:07.284Z,4.60
2018-12-03T20:41:21.920Z,4.90
2018-12-03T20:46:33.135Z,4.80
2018-12-03T20:51:37.783Z,6.10
2018-12-03T20:56:43.860Z,5.30
2018-12-03T21:01:50.298Z,5.40
2018-12-03T21:06:58.308Z,5.60
2018-12-03T21:12:06.480Z,5.30
2018-12-03T21:17:20.841Z,5.50
2018-12-03T21:22:28.347Z,5.50
2018-12-03T21:27:36.619Z,5.00
2018-12-03T21:32:41.778Z,4.40
2018-12-03T21:37:53.116Z,5.80
2018-12-03T21:42:59.082Z,4.90
2018-12-03T21:48:07.291Z,4.90
2018-12-03T21:53:15.153Z,5.40
2018-12-03T21:58:24.718Z,6.60
2018-12-03T22:03:39.007Z,6.40
2018-12-03T22:08:47.681Z,6.40
2018-12-03T22:14:02.619Z,8.00
2018-12-03T22:19:09.242Z,6.90
2018-12-03T22:24:18.593Z,7.20
2018-12-03T22:29:27.658Z,5.80
2018-12-03T22:34:39.677Z,6.00
2018-12-03T22:39:52.665Z,7.10
2018-12-03T22:45:03.131Z,7.40
2018-12-03T22:50:22.830Z,8.10
2018-12-03T22:55:38.707Z,8.70
2018-12-03T23:00:48.762Z,8.30
2018-12-03T23:06:11.070Z,10.10
2018-12-03T23:11:28.865Z,8.50
2018-12-03T23:16:40.024Z,5.30
2018-12-03T23:22:01.837Z,2.70
2018-12-03T23:27:29.092Z,1.80
